sensor_id;sensor_type;location;lat;lon;timestamp;P1;durP1;ratioP1;P2;durP2;ratioP2
31746;SDS011;18319;48.974;8.462;2023-04-01T00:00:56;1.83;;;0.38;;
31746;SDS011;18319;48.974;8.462;2023-04-01T00:03:25;1.08;;;0.50;;
31746;SDS011;18319;48.974;8.462;2023-04-01T00:05:53;2.50;;;0.57;;
31746;SDS011;18319;48.974;8.462;2023-04-01T00:08:20;1.58;;;1.05;;
31746;SDS011;18319;48.974;8.462;2023-04-01T00:10:47;2.35;;;0.43;;
31746;SDS011;18319;48.974;8.462;2023-04-01T00:13:13;2.65;;;0.45;;
31746;SDS011;18319;48.974;8.462;2023-04-01T00:15:41;0.47;;;0.47;;
31746;SDS011;18319;48.974;8.462;2023-04-01T00:18:08;2.35;;;0.40;;
31746;SDS011;18319;48.974;8.462;2023-04-01T00:20:36;3.30;;;0.93;;
31746;SDS011;18319;48.974;8.462;2023-04-01T00:23:03;1.85;;;0.70;;
31746;SDS011;18319;48.974;8.462;2023-04-01T00:25:30;3.47;;;1.00;;
31746;SDS011;18319;48.974;8.462;2023-04-01T00:27:57;2.25;;;0.50;;
31746;SDS011;18319;48.974;8.462;2023-04-01T00:30:24;2.15;;;0.63;;
31746;SDS011;18319;48.974;8.462;2023-04-01T00:32:51;1.27;;;0.30;;
31746;SDS011;18319;48.974;8.462;2023-04-01T00:35:18;7.83;;;0.60;;
31746;SDS011;18319;48.974;8.462;2023-04-01T00:37:46;0.93;;;0.35;;
31746;SDS011;18319;48.974;8.462;2023-04-01T00:40:21;0.93;;;0.40;;
31746;SDS011;18319;48.974;8.462;2023-04-01T00:42:50;1.10;;;0.50;;
31746;SDS011;18319;48.974;8.462;2023-04-01T00:45:26;1.10;;;0.45;;
31746;SDS011;18319;48.974;8.462;2023-04-01T00:47:55;2.30;;;0.50;;
31746;SDS011;18319;48.974;8.462;2023-04-01T00:50:24;1.90;;;0.50;;
31746;SDS011;18319;48.974;8.462;2023-04-01T00:52:53;2.40;;;0.50;;
31746;SDS011;18319;48.974;8.462;2023-04-01T00:55:20;2.03;;;0.60;;
31746;SDS011;18319;48.974;8.462;2023-04-01T00:57:49;2.03;;;0.60;;
31746;SDS011;18319;48.974;8.462;2023-04-01T01:00:19;2.38;;;0.32;;
31746;SDS011;18319;48.974;8.462;2023-04-01T01:02:46;3.85;;;0.60;;
31746;SDS011;18319;48.974;8.462;2023-04-01T01:05:16;1.00;;;0.50;;
31746;SDS011;18319;48.974;8.462;2023-04-01T01:07:47;1.33;;;0.70;;
31746;SDS011;18319;48.974;8.462;2023-04-01T01:10:21;0.93;;;0.50;;
31746;SDS011;18319;48.974;8.462;2023-04-01T01:12:53;3.10;;;0.30;;
31746;SDS011;18319;48.974;8.462;2023-04-01T01:15:29;2.83;;;0.40;;
31746;SDS011;18319;48.974;8.462;2023-04-01T01:18:01;2.90;;;1.25;;
31746;SDS011;18319;48.974;8.462;2023-04-01T01:23:23;2.97;;;0.30;;
31746;SDS011;18319;48.974;8.462;2023-04-01T01:26:12;2.50;;;0.50;;
31746;SDS011;18319;48.974;8.462;2023-04-01T01:28:55;1.77;;;0.47;;
31746;SDS011;18319;48.974;8.462;2023-04-01T01:31:36;1.57;;;0.63;;
31746;SDS011;18319;48.974;8.462;2023-04-01T01:34:11;1.00;;;0.40;;
31746;SDS011;18319;48.974;8.462;2023-04-01T01:36:46;1.10;;;0.32;;
31746;SDS011;18319;48.974;8.462;2023-04-01T01:39:18;0.25;;;0.25;;
31746;SDS011;18319;48.974;8.462;2023-04-01T01:41:51;1.67;;;0.40;;
31746;SDS011;18319;48.974;8.462;2023-04-01T01:44:19;2.42;;;0.32;;
31746;SDS011;18319;48.974;8.462;2023-04-01T01:46:48;0.77;;;0.35;;
31746;SDS011;18319;48.974;8.462;2023-04-01T01:49:16;3.35;;;0.45;;
31746;SDS011;18319;48.974;8.462;2023-04-01T01:51:46;1.55;;;0.25;;
31746;SDS011;18319;48.974;8.462;2023-04-01T01:54:13;1.17;;;0.40;;
31746;SDS011;18319;48.974;8.462;2023-04-01T01:56:41;0.32;;;0.30;;
31746;SDS011;18319;48.974;8.462;2023-04-01T01:59:11;2.17;;;0.63;;
31746;SDS011;18319;48.974;8.462;2023-04-01T02:01:39;0.20;;;0.20;;
31746;SDS011;18319;48.974;8.462;2023-04-01T02:04:11;3.88;;;0.47;;
31746;SDS011;18319;48.974;8.462;2023-04-01T02:06:42;1.17;;;0.20;;
31746;SDS011;18319;48.974;8.462;2023-04-01T02:09:15;0.57;;;0.33;;
31746;SDS011;18319;48.974;8.462;2023-04-01T02:11:42;1.58;;;0.40;;
31746;SDS011;18319;48.974;8.462;2023-04-01T02:14:15;1.15;;;0.20;;
31746;SDS011;18319;48.974;8.462;2023-04-01T02:16:45;0.50;;;0.30;;
31746;SDS011;18319;48.974;8.462;2023-04-01T02:19:16;0.98;;;0.30;;
31746;SDS011;18319;48.974;8.462;2023-04-01T02:21:47;1.42;;;0.40;;
31746;SDS011;18319;48.974;8.462;2023-04-01T02:24:18;1.13;;;0.30;;
31746;SDS011;18319;48.974;8.462;2023-04-01T02:26:47;1.13;;;0.30;;
31746;SDS011;18319;48.974;8.462;2023-04-01T02:29:16;1.02;;;0.20;;
31746;SDS011;18319;48.974;8.462;2023-04-01T02:31:44;1.50;;;0.27;;
31746;SDS011;18319;48.974;8.462;2023-04-01T02:34:11;0.68;;;0.20;;
31746;SDS011;18319;48.974;8.462;2023-04-01T02:36:38;1.47;;;0.30;;
31746;SDS011;18319;48.974;8.462;2023-04-01T02:39:05;0.65;;;0.20;;
31746;SDS011;18319;48.974;8.462;2023-04-01T02:41:39;0.43;;;0.25;;
31746;SDS011;18319;48.974;8.462;2023-04-01T02:44:06;1.80;;;0.30;;
31746;SDS011;18319;48.974;8.462;2023-04-01T02:46:34;1.00;;;0.30;;
31746;SDS011;18319;48.974;8.462;2023-04-01T02:49:00;1.65;;;0.22;;
31746;SDS011;18319;48.974;8.462;2023-04-01T02:51:27;0.65;;;0.38;;
31746;SDS011;18319;48.974;8.462;2023-04-01T02:53:54;0.47;;;0.30;;
31746;SDS011;18319;48.974;8.462;2023-04-01T02:56:21;1.40;;;0.20;;
31746;SDS011;18319;48.974;8.462;2023-04-01T02:58:49;0.50;;;0.40;;
31746;SDS011;18319;48.974;8.462;2023-04-01T03:01:16;1.75;;;0.50;;
31746;SDS011;18319;48.974;8.462;2023-04-01T03:03:45;1.35;;;0.38;;
31746;SDS011;18319;48.974;8.462;2023-04-01T03:06:12;0.93;;;0.20;;
31746;SDS011;18319;48.974;8.462;2023-04-01T03:08:41;0.60;;;0.25;;
31746;SDS011;18319;48.974;8.462;2023-04-01T03:11:08;0.77;;;0.28;;
31746;SDS011;18319;48.974;8.462;2023-04-01T03:13:36;0.77;;;0.30;;
31746;SDS011;18319;48.974;8.462;2023-04-01T03:16:04;0.63;;;0.25;;
31746;SDS011;18319;48.974;8.462;2023-04-01T03:18:31;0.43;;;0.30;;
31746;SDS011;18319;48.974;8.462;2023-04-01T03:21:11;0.65;;;0.40;;
31746;SDS011;18319;48.974;8.462;2023-04-01T03:23:39;1.38;;;0.30;;
31746;SDS011;18319;48.974;8.462;2023-04-01T03:26:06;0.40;;;0.30;;
31746;SDS011;18319;48.974;8.462;2023-04-01T03:28:32;0.38;;;0.30;;
31746;SDS011;18319;48.974;8.462;2023-04-01T03:30:59;0.43;;;0.20;;
31746;SDS011;18319;48.974;8.462;2023-04-01T03:33:27;1.33;;;0.30;;
31746;SDS011;18319;48.974;8.462;2023-04-01T03:35:54;1.05;;;0.30;;
31746;SDS011;18319;48.974;8.462;2023-04-01T03:38:21;0.20;;;0.20;;
31746;SDS011;18319;48.974;8.462;2023-04-01T03:40:48;0.75;;;0.30;;
31746;SDS011;18319;48.974;8.462;2023-04-01T03:43:14;0.90;;;0.22;;
31746;SDS011;18319;48.974;8.462;2023-04-01T03:45:43;1.75;;;0.38;;
31746;SDS011;18319;48.974;8.462;2023-04-01T03:48:10;0.43;;;0.30;;
31746;SDS011;18319;48.974;8.462;2023-04-01T03:50:38;3.78;;;0.60;;
31746;SDS011;18319;48.974;8.462;2023-04-01T03:53:05;2.25;;;0.68;;
31746;SDS011;18319;48.974;8.462;2023-04-01T03:55:32;1.13;;;0.40;;
31746;SDS011;18319;48.974;8.462;2023-04-01T03:57:59;1.25;;;0.40;;
31746;SDS011;18319;48.974;8.462;2023-04-01T04:00:27;3.95;;;0.65;;
31746;SDS011;18319;48.974;8.462;2023-04-01T04:02:54;0.93;;;0.40;;
31746;SDS011;18319;48.974;8.462;2023-04-01T04:05:21;0.50;;;0.40;;
31746;SDS011;18319;48.974;8.462;2023-04-01T04:07:50;2.33;;;0.38;;
31746;SDS011;18319;48.974;8.462;2023-04-01T04:10:16;0.50;;;0.40;;
31746;SDS011;18319;48.974;8.462;2023-04-01T04:12:44;0.93;;;0.40;;
31746;SDS011;18319;48.974;8.462;2023-04-01T04:15:11;1.85;;;0.40;;
31746;SDS011;18319;48.974;8.462;2023-04-01T04:17:38;3.47;;;0.40;;
31746;SDS011;18319;48.974;8.462;2023-04-01T04:20:05;1.55;;;0.40;;
31746;SDS011;18319;48.974;8.462;2023-04-01T04:22:32;1.65;;;0.45;;
31746;SDS011;18319;48.974;8.462;2023-04-01T04:25:01;1.45;;;0.40;;
31746;SDS011;18319;48.974;8.462;2023-04-01T04:27:27;3.63;;;0.30;;
31746;SDS011;18319;48.974;8.462;2023-04-01T04:29:54;2.70;;;0.40;;
31746;SDS011;18319;48.974;8.462;2023-04-01T04:32:21;6.95;;;0.88;;
31746;SDS011;18319;48.974;8.462;2023-04-01T04:34:48;2.05;;;0.40;;
31746;SDS011;18319;48.974;8.462;2023-04-01T04:37:15;1.10;;;0.37;;
31746;SDS011;18319;48.974;8.462;2023-04-01T04:39:41;2.90;;;0.50;;
31746;SDS011;18319;48.974;8.462;2023-04-01T04:42:09;1.30;;;0.38;;
31746;SDS011;18319;48.974;8.462;2023-04-01T04:44:36;3.38;;;0.50;;
31746;SDS011;18319;48.974;8.462;2023-04-01T04:47:03;0.98;;;0.50;;
31746;SDS011;18319;48.974;8.462;2023-04-01T04:49:30;0.77;;;0.47;;
31746;SDS011;18319;48.974;8.462;2023-04-01T04:51:57;2.17;;;0.50;;
31746;SDS011;18319;48.974;8.462;2023-04-01T04:54:23;1.33;;;0.30;;
31746;SDS011;18319;48.974;8.462;2023-04-01T04:56:50;0.57;;;0.38;;
31746;SDS011;18319;48.974;8.462;2023-04-01T04:59:19;3.22;;;0.52;;
31746;SDS011;18319;48.974;8.462;2023-04-01T05:01:46;2.22;;;0.43;;
31746;SDS011;18319;48.974;8.462;2023-04-01T05:04:12;0.68;;;0.22;;
31746;SDS011;18319;48.974;8.462;2023-04-01T05:06:39;2.13;;;0.60;;
31746;SDS011;18319;48.974;8.462;2023-04-01T05:09:06;0.63;;;0.30;;
31746;SDS011;18319;48.974;8.462;2023-04-01T05:11:33;1.48;;;0.30;;
31746;SDS011;18319;48.974;8.462;2023-04-01T05:14:00;3.37;;;0.50;;
31746;SDS011;18319;48.974;8.462;2023-04-01T05:16:28;2.63;;;0.60;;
31746;SDS011;18319;48.974;8.462;2023-04-01T05:18:56;1.70;;;0.50;;
31746;SDS011;18319;48.974;8.462;2023-04-01T05:21:23;0.63;;;0.40;;
31746;SDS011;18319;48.974;8.462;2023-04-01T05:23:50;3.20;;;0.50;;
31746;SDS011;18319;48.974;8.462;2023-04-01T05:26:17;1.45;;;0.35;;
31746;SDS011;18319;48.974;8.462;2023-04-01T05:28:43;0.57;;;0.50;;
31746;SDS011;18319;48.974;8.462;2023-04-01T05:31:10;0.98;;;0.50;;
31746;SDS011;18319;48.974;8.462;2023-04-01T05:33:38;3.38;;;0.40;;
31746;SDS011;18319;48.974;8.462;2023-04-01T05:36:06;2.03;;;0.60;;
31746;SDS011;18319;48.974;8.462;2023-04-01T05:38:34;0.43;;;0.20;;
31746;SDS011;18319;48.974;8.462;2023-04-01T05:41:01;0.93;;;0.60;;
31746;SDS011;18319;48.974;8.462;2023-04-01T05:43:28;1.35;;;0.30;;
31746;SDS011;18319;48.974;8.462;2023-04-01T05:45:55;1.23;;;0.32;;
31746;SDS011;18319;48.974;8.462;2023-04-01T05:48:22;1.52;;;0.50;;
31746;SDS011;18319;48.974;8.462;2023-04-01T05:50:50;3.83;;;0.45;;
31746;SDS011;18319;48.974;8.462;2023-04-01T05:53:17;1.50;;;0.20;;
31746;SDS011;18319;48.974;8.462;2023-04-01T05:55:44;1.48;;;0.30;;
31746;SDS011;18319;48.974;8.462;2023-04-01T05:58:11;0.38;;;0.20;;
31746;SDS011;18319;48.974;8.462;2023-04-01T06:00:37;0.65;;;0.30;;
31746;SDS011;18319;48.974;8.462;2023-04-01T06:03:04;0.28;;;0.20;;
31746;SDS011;18319;48.974;8.462;2023-04-01T06:05:35;1.10;;;0.35;;
31746;SDS011;18319;48.974;8.462;2023-04-01T06:08:09;0.40;;;0.30;;
31746;SDS011;18319;48.974;8.462;2023-04-01T06:10:39;2.00;;;0.30;;
31746;SDS011;18319;48.974;8.462;2023-04-01T06:13:17;0.25;;;0.22;;
31746;SDS011;18319;48.974;8.462;2023-04-01T06:15:53;1.27;;;0.32;;
31746;SDS011;18319;48.974;8.462;2023-04-01T06:18:41;0.65;;;0.40;;
31746;SDS011;18319;48.974;8.462;2023-04-01T06:21:27;0.32;;;0.17;;
31746;SDS011;18319;48.974;8.462;2023-04-01T06:24:17;2.25;;;0.40;;
31746;SDS011;18319;48.974;8.462;2023-04-01T06:26:59;2.80;;;0.22;;
31746;SDS011;18319;48.974;8.462;2023-04-01T06:29:49;0.30;;;0.30;;
31746;SDS011;18319;48.974;8.462;2023-04-01T06:32:31;1.20;;;0.30;;
31746;SDS011;18319;48.974;8.462;2023-04-01T06:35:17;1.83;;;0.30;;
31746;SDS011;18319;48.974;8.462;2023-04-01T06:38:05;0.50;;;0.30;;
31746;SDS011;18319;48.974;8.462;2023-04-01T06:43:49;0.90;;;0.82;;
31746;SDS011;18319;48.974;8.462;2023-04-01T06:46:26;0.97;;;0.90;;
31746;SDS011;18319;48.974;8.462;2023-04-01T06:49:10;1.67;;;1.58;;
31746;SDS011;18319;48.974;8.462;2023-04-01T06:51:57;1.35;;;0.88;;
31746;SDS011;18319;48.974;8.462;2023-04-01T06:54:31;1.60;;;0.60;;
31746;SDS011;18319;48.974;8.462;2023-04-01T06:57:02;2.05;;;1.15;;
31746;SDS011;18319;48.974;8.462;2023-04-01T06:59:34;0.70;;;0.52;;
31746;SDS011;18319;48.974;8.462;2023-04-01T07:02:04;0.98;;;0.55;;
31746;SDS011;18319;48.974;8.462;2023-04-01T07:04:39;0.68;;;0.68;;
31746;SDS011;18319;48.974;8.462;2023-04-01T07:07:10;1.45;;;0.60;;
31746;SDS011;18319;48.974;8.462;2023-04-01T07:09:44;0.45;;;0.45;;
31746;SDS011;18319;48.974;8.462;2023-04-01T07:12:20;1.30;;;0.50;;
31746;SDS011;18319;48.974;8.462;2023-04-01T07:14:54;1.23;;;0.50;;
31746;SDS011;18319;48.974;8.462;2023-04-01T07:17:22;3.08;;;0.60;;
31746;SDS011;18319;48.974;8.462;2023-04-01T07:19:52;0.52;;;0.45;;
31746;SDS011;18319;48.974;8.462;2023-04-01T07:22:25;0.82;;;0.43;;
31746;SDS011;18319;48.974;8.462;2023-04-01T07:24:55;1.10;;;0.70;;
31746;SDS011;18319;48.974;8.462;2023-04-01T07:27:28;0.63;;;0.63;;
31746;SDS011;18319;48.974;8.462;2023-04-01T07:29:56;0.82;;;0.50;;
31746;SDS011;18319;48.974;8.462;2023-04-01T07:32:27;1.10;;;0.40;;
31746;SDS011;18319;48.974;8.462;2023-04-01T07:35:07;1.55;;;0.60;;
31746;SDS011;18319;48.974;8.462;2023-04-01T07:37:42;2.50;;;0.82;;
31746;SDS011;18319;48.974;8.462;2023-04-01T07:40:22;1.25;;;0.35;;
31746;SDS011;18319;48.974;8.462;2023-04-01T07:43:11;0.75;;;0.70;;
31746;SDS011;18319;48.974;8.462;2023-04-01T07:45:57;1.10;;;0.47;;
31746;SDS011;18319;48.974;8.462;2023-04-01T07:48:35;1.25;;;0.40;;
31746;SDS011;18319;48.974;8.462;2023-04-01T07:51:08;0.85;;;0.50;;
31746;SDS011;18319;48.974;8.462;2023-04-01T07:53:42;1.70;;;1.58;;
31746;SDS011;18319;48.974;8.462;2023-04-01T07:56:15;10.98;;;10.13;;
31746;SDS011;18319;48.974;8.462;2023-04-01T07:58:51;2.72;;;2.63;;
31746;SDS011;18319;48.974;8.462;2023-04-01T08:01:27;0.90;;;0.70;;
31746;SDS011;18319;48.974;8.462;2023-04-01T08:04:05;1.83;;;0.70;;
31746;SDS011;18319;48.974;8.462;2023-04-01T08:06:44;1.63;;;0.73;;
31746;SDS011;18319;48.974;8.462;2023-04-01T08:09:18;0.60;;;0.60;;
31746;SDS011;18319;48.974;8.462;2023-04-01T08:11:56;1.65;;;1.63;;
31746;SDS011;18319;48.974;8.462;2023-04-01T08:14:32;3.90;;;1.58;;
31746;SDS011;18319;48.974;8.462;2023-04-01T08:17:08;3.25;;;0.55;;
31746;SDS011;18319;48.974;8.462;2023-04-01T08:19:46;1.33;;;0.30;;
31746;SDS011;18319;48.974;8.462;2023-04-01T08:22:27;0.60;;;0.60;;
31746;SDS011;18319;48.974;8.462;2023-04-01T08:25:01;0.40;;;0.40;;
31746;SDS011;18319;48.974;8.462;2023-04-01T08:27:34;0.45;;;0.40;;
31746;SDS011;18319;48.974;8.462;2023-04-01T08:30:05;1.13;;;0.30;;
31746;SDS011;18319;48.974;8.462;2023-04-01T08:32:42;2.95;;;0.75;;
31746;SDS011;18319;48.974;8.462;2023-04-01T08:35:14;4.05;;;0.50;;
31746;SDS011;18319;48.974;8.462;2023-04-01T08:37:50;1.17;;;0.30;;
31746;SDS011;18319;48.974;8.462;2023-04-01T08:40:28;4.68;;;0.50;;
31746;SDS011;18319;48.974;8.462;2023-04-01T08:43:16;2.47;;;2.22;;
31746;SDS011;18319;48.974;8.462;2023-04-01T08:46:02;3.15;;;1.33;;
31746;SDS011;18319;48.974;8.462;2023-04-01T08:48:56;1.35;;;0.40;;
31746;SDS011;18319;48.974;8.462;2023-04-01T08:51:44;3.75;;;0.65;;
31746;SDS011;18319;48.974;8.462;2023-04-01T08:54:27;3.88;;;0.40;;
31746;SDS011;18319;48.974;8.462;2023-04-01T08:57:10;0.88;;;0.32;;
31746;SDS011;18319;48.974;8.462;2023-04-01T08:59:50;1.40;;;0.50;;
31746;SDS011;18319;48.974;8.462;2023-04-01T09:05:36;1.65;;;0.40;;
31746;SDS011;18319;48.974;8.462;2023-04-01T09:08:17;0.32;;;0.30;;
31746;SDS011;18319;48.974;8.462;2023-04-01T09:10:59;0.75;;;0.30;;
31746;SDS011;18319;48.974;8.462;2023-04-01T09:13:36;0.60;;;0.35;;
31746;SDS011;18319;48.974;8.462;2023-04-01T09:16:22;0.30;;;0.30;;
31746;SDS011;18319;48.974;8.462;2023-04-01T09:21:58;0.32;;;0.22;;
31746;SDS011;18319;48.974;8.462;2023-04-01T09:25:01;0.32;;;0.32;;
31746;SDS011;18319;48.974;8.462;2023-04-01T09:27:43;0.80;;;0.80;;
31746;SDS011;18319;48.974;8.462;2023-04-01T09:33:11;1.40;;;0.50;;
31746;SDS011;18319;48.974;8.462;2023-04-01T09:35:56;4.18;;;2.15;;
31746;SDS011;18319;48.974;8.462;2023-04-01T09:38:34;1.55;;;0.75;;
31746;SDS011;18319;48.974;8.462;2023-04-01T09:41:12;1.83;;;0.40;;
31746;SDS011;18319;48.974;8.462;2023-04-01T09:43:54;2.13;;;1.08;;
31746;SDS011;18319;48.974;8.462;2023-04-01T09:46:35;0.30;;;0.30;;
31746;SDS011;18319;48.974;8.462;2023-04-01T09:52:24;0.30;;;0.30;;
31746;SDS011;18319;48.974;8.462;2023-04-01T09:55:03;0.57;;;0.15;;
31746;SDS011;18319;48.974;8.462;2023-04-01T09:58:04;1.38;;;0.30;;
31746;SDS011;18319;48.974;8.462;2023-04-01T10:01:03;0.20;;;0.20;;
31746;SDS011;18319;48.974;8.462;2023-04-01T10:04:06;1.08;;;0.20;;
31746;SDS011;18319;48.974;8.462;2023-04-01T10:13:04;0.80;;;0.30;;
31746;SDS011;18319;48.974;8.462;2023-04-01T10:18:53;0.30;;;0.30;;
31746;SDS011;18319;48.974;8.462;2023-04-01T10:24:43;0.30;;;0.30;;
31746;SDS011;18319;48.974;8.462;2023-04-01T10:27:57;1.65;;;0.30;;
31746;SDS011;18319;48.974;8.462;2023-04-01T10:30:52;0.28;;;0.28;;
31746;SDS011;18319;48.974;8.462;2023-04-01T10:33:53;0.20;;;0.20;;
31746;SDS011;18319;48.974;8.462;2023-04-01T10:36:53;0.45;;;0.20;;
31746;SDS011;18319;48.974;8.462;2023-04-01T10:39:34;0.20;;;0.20;;
31746;SDS011;18319;48.974;8.462;2023-04-01T10:42:29;0.30;;;0.30;;
31746;SDS011;18319;48.974;8.462;2023-04-01T10:45:39;0.80;;;0.30;;
31746;SDS011;18319;48.974;8.462;2023-04-01T10:48:35;0.30;;;0.30;;
31746;SDS011;18319;48.974;8.462;2023-04-01T10:51:35;0.40;;;0.20;;
31746;SDS011;18319;48.974;8.462;2023-04-01T10:54:18;5.43;;;0.77;;
31746;SDS011;18319;48.974;8.462;2023-04-01T10:56:55;0.45;;;0.38;;
31746;SDS011;18319;48.974;8.462;2023-04-01T11:06:03;1.35;;;0.40;;
31746;SDS011;18319;48.974;8.462;2023-04-01T11:15:26;0.63;;;0.38;;
31746;SDS011;18319;48.974;8.462;2023-04-01T11:21:36;1.95;;;0.30;;
31746;SDS011;18319;48.974;8.462;2023-04-01T11:24:21;0.45;;;0.45;;
31746;SDS011;18319;48.974;8.462;2023-04-01T11:27:18;0.30;;;0.30;;
31746;SDS011;18319;48.974;8.462;2023-04-01T11:30:08;1.85;;;0.65;;
31746;SDS011;18319;48.974;8.462;2023-04-01T11:35:42;2.05;;;0.40;;
31746;SDS011;18319;48.974;8.462;2023-04-01T11:41:20;0.30;;;0.30;;
31746;SDS011;18319;48.974;8.462;2023-04-01T11:44:03;1.25;;;0.68;;
31746;SDS011;18319;48.974;8.462;2023-04-01T11:46:42;1.08;;;0.65;;
31746;SDS011;18319;48.974;8.462;2023-04-01T11:49:29;2.30;;;0.82;;
31746;SDS011;18319;48.974;8.462;2023-04-01T11:52:20;0.90;;;0.40;;
31746;SDS011;18319;48.974;8.462;2023-04-01T11:55:10;0.82;;;0.32;;
31746;SDS011;18319;48.974;8.462;2023-04-01T12:01:25;0.20;;;0.20;;
31746;SDS011;18319;48.974;8.462;2023-04-01T12:04:00;0.47;;;0.47;;
31746;SDS011;18319;48.974;8.462;2023-04-01T12:06:49;0.30;;;0.22;;
31746;SDS011;18319;48.974;8.462;2023-04-01T12:09:28;0.45;;;0.20;;
31746;SDS011;18319;48.974;8.462;2023-04-01T12:12:11;0.47;;;0.25;;
31746;SDS011;18319;48.974;8.462;2023-04-01T12:14:45;0.30;;;0.30;;
31746;SDS011;18319;48.974;8.462;2023-04-01T12:17:26;1.75;;;0.38;;
31746;SDS011;18319;48.974;8.462;2023-04-01T12:19:58;0.55;;;0.52;;
31746;SDS011;18319;48.974;8.462;2023-04-01T12:22:41;1.08;;;0.40;;
31746;SDS011;18319;48.974;8.462;2023-04-01T12:25:24;0.30;;;0.30;;
31746;SDS011;18319;48.974;8.462;2023-04-01T12:28:08;4.40;;;0.65;;
31746;SDS011;18319;48.974;8.462;2023-04-01T12:30:52;0.30;;;0.30;;
31746;SDS011;18319;48.974;8.462;2023-04-01T12:33:33;1.67;;;0.52;;
31746;SDS011;18319;48.974;8.462;2023-04-01T12:36:35;0.40;;;0.40;;
31746;SDS011;18319;48.974;8.462;2023-04-01T12:39:17;0.20;;;0.20;;
31746;SDS011;18319;48.974;8.462;2023-04-01T12:42:06;0.47;;;0.47;;
31746;SDS011;18319;48.974;8.462;2023-04-01T12:44:53;0.32;;;0.32;;
31746;SDS011;18319;48.974;8.462;2023-04-01T12:47:39;0.45;;;0.40;;
31746;SDS011;18319;48.974;8.462;2023-04-01T12:50:26;0.32;;;0.30;;
31746;SDS011;18319;48.974;8.462;2023-04-01T12:53:07;1.15;;;0.28;;
31746;SDS011;18319;48.974;8.462;2023-04-01T12:55:42;1.58;;;0.20;;
31746;SDS011;18319;48.974;8.462;2023-04-01T13:01:30;0.45;;;0.30;;
31746;SDS011;18319;48.974;8.462;2023-04-01T13:07:18;0.30;;;0.30;;
31746;SDS011;18319;48.974;8.462;2023-04-01T13:10:01;0.63;;;0.30;;
31746;SDS011;18319;48.974;8.462;2023-04-01T13:12:49;0.30;;;0.30;;
31746;SDS011;18319;48.974;8.462;2023-04-01T13:15:30;0.88;;;0.45;;
31746;SDS011;18319;48.974;8.462;2023-04-01T13:18:10;2.17;;;1.23;;
31746;SDS011;18319;48.974;8.462;2023-04-01T13:20:48;0.60;;;0.60;;
31746;SDS011;18319;48.974;8.462;2023-04-01T13:23:29;2.30;;;0.47;;
31746;SDS011;18319;48.974;8.462;2023-04-01T13:26:05;0.30;;;0.30;;
31746;SDS011;18319;48.974;8.462;2023-04-01T13:28:38;0.47;;;0.30;;
31746;SDS011;18319;48.974;8.462;2023-04-01T13:31:13;1.17;;;0.40;;
31746;SDS011;18319;48.974;8.462;2023-04-01T13:33:56;0.28;;;0.28;;
31746;SDS011;18319;48.974;8.462;2023-04-01T13:36:34;0.63;;;0.63;;
31746;SDS011;18319;48.974;8.462;2023-04-01T13:42:15;0.30;;;0.30;;
31746;SDS011;18319;48.974;8.462;2023-04-01T13:44:46;0.65;;;0.63;;
31746;SDS011;18319;48.974;8.462;2023-04-01T13:47:23;0.40;;;0.40;;
31746;SDS011;18319;48.974;8.462;2023-04-01T13:50:03;1.55;;;0.52;;
31746;SDS011;18319;48.974;8.462;2023-04-01T13:55:49;1.00;;;0.40;;
31746;SDS011;18319;48.974;8.462;2023-04-01T14:01:23;0.30;;;0.30;;
31746;SDS011;18319;48.974;8.462;2023-04-01T14:04:03;0.30;;;0.30;;
31746;SDS011;18319;48.974;8.462;2023-04-01T14:07:13;0.35;;;0.35;;
31746;SDS011;18319;48.974;8.462;2023-04-01T14:09:58;0.32;;;0.25;;
31746;SDS011;18319;48.974;8.462;2023-04-01T14:12:31;0.20;;;0.20;;
31746;SDS011;18319;48.974;8.462;2023-04-01T14:15:07;0.50;;;0.30;;
31746;SDS011;18319;48.974;8.462;2023-04-01T14:18:07;1.17;;;0.40;;
31746;SDS011;18319;48.974;8.462;2023-04-01T14:20:56;1.00;;;0.50;;
31746;SDS011;18319;48.974;8.462;2023-04-01T14:23:51;1.33;;;0.30;;
31746;SDS011;18319;48.974;8.462;2023-04-01T14:29:35;0.38;;;0.38;;
31746;SDS011;18319;48.974;8.462;2023-04-01T14:32:09;0.40;;;0.40;;
31746;SDS011;18319;48.974;8.462;2023-04-01T14:34:47;0.30;;;0.30;;
31746;SDS011;18319;48.974;8.462;2023-04-01T14:37:26;0.60;;;0.60;;
31746;SDS011;18319;48.974;8.462;2023-04-01T14:40:24;0.45;;;0.30;;
31746;SDS011;18319;48.974;8.462;2023-04-01T14:46:08;0.60;;;0.50;;
31746;SDS011;18319;48.974;8.462;2023-04-01T14:48:50;0.43;;;0.20;;
31746;SDS011;18319;48.974;8.462;2023-04-01T14:51:21;0.32;;;0.32;;
31746;SDS011;18319;48.974;8.462;2023-04-01T14:53:57;0.40;;;0.40;;
31746;SDS011;18319;48.974;8.462;2023-04-01T14:56:36;1.17;;;0.63;;
31746;SDS011;18319;48.974;8.462;2023-04-01T14:59:07;1.08;;;0.30;;
31746;SDS011;18319;48.974;8.462;2023-04-01T15:01:38;0.35;;;0.35;;
31746;SDS011;18319;48.974;8.462;2023-04-01T15:04:17;1.65;;;0.20;;
31746;SDS011;18319;48.974;8.462;2023-04-01T15:07:01;0.38;;;0.38;;
31746;SDS011;18319;48.974;8.462;2023-04-01T15:09:38;0.52;;;0.43;;
31746;SDS011;18319;48.974;8.462;2023-04-01T15:12:17;1.63;;;0.50;;
31746;SDS011;18319;48.974;8.462;2023-04-01T15:14:58;0.57;;;0.40;;
31746;SDS011;18319;48.974;8.462;2023-04-01T15:17:42;0.30;;;0.30;;
31746;SDS011;18319;48.974;8.462;2023-04-01T15:20:21;0.82;;;0.50;;
31746;SDS011;18319;48.974;8.462;2023-04-01T15:23:02;2.25;;;0.47;;
31746;SDS011;18319;48.974;8.462;2023-04-01T15:25:41;1.50;;;0.40;;
31746;SDS011;18319;48.974;8.462;2023-04-01T15:28:27;0.70;;;0.50;;
31746;SDS011;18319;48.974;8.462;2023-04-01T15:31:03;1.25;;;0.40;;
31746;SDS011;18319;48.974;8.462;2023-04-01T15:33:39;1.50;;;0.40;;
31746;SDS011;18319;48.974;8.462;2023-04-01T15:36:23;1.10;;;0.30;;
31746;SDS011;18319;48.974;8.462;2023-04-01T15:39:01;0.85;;;0.40;;
31746;SDS011;18319;48.974;8.462;2023-04-01T15:41:39;0.55;;;0.50;;
31746;SDS011;18319;48.974;8.462;2023-04-01T15:44:27;2.90;;;0.40;;
31746;SDS011;18319;48.974;8.462;2023-04-01T15:47:11;0.30;;;0.30;;
31746;SDS011;18319;48.974;8.462;2023-04-01T15:59:18;0.60;;;0.60;;
31746;SDS011;18319;48.974;8.462;2023-04-01T16:01:58;1.88;;;1.77;;
31746;SDS011;18319;48.974;8.462;2023-04-01T16:04:46;0.55;;;0.50;;
31746;SDS011;18319;48.974;8.462;2023-04-01T16:07:22;0.95;;;0.40;;
31746;SDS011;18319;48.974;8.462;2023-04-01T16:10:09;0.70;;;0.60;;
31746;SDS011;18319;48.974;8.462;2023-04-01T16:12:51;0.70;;;0.50;;
31746;SDS011;18319;48.974;8.462;2023-04-01T16:15:32;1.35;;;0.50;;
31746;SDS011;18319;48.974;8.462;2023-04-01T16:18:13;0.90;;;0.47;;
31746;SDS011;18319;48.974;8.462;2023-04-01T16:20:55;0.60;;;0.30;;
31746;SDS011;18319;48.974;8.462;2023-04-01T16:23:26;3.13;;;0.77;;
31746;SDS011;18319;48.974;8.462;2023-04-01T16:26:02;3.00;;;1.25;;
31746;SDS011;18319;48.974;8.462;2023-04-01T16:28:32;1.13;;;0.85;;
31746;SDS011;18319;48.974;8.462;2023-04-01T16:31:05;2.33;;;1.50;;
31746;SDS011;18319;48.974;8.462;2023-04-01T16:33:38;1.25;;;1.15;;
31746;SDS011;18319;48.974;8.462;2023-04-01T16:36:17;0.68;;;0.65;;
31746;SDS011;18319;48.974;8.462;2023-04-01T16:38:53;0.70;;;0.68;;
31746;SDS011;18319;48.974;8.462;2023-04-01T16:41:34;1.35;;;0.60;;
31746;SDS011;18319;48.974;8.462;2023-04-01T16:44:09;2.20;;;0.50;;
31746;SDS011;18319;48.974;8.462;2023-04-01T16:46:44;4.63;;;0.70;;
31746;SDS011;18319;48.974;8.462;2023-04-01T16:49:27;0.77;;;0.57;;
31746;SDS011;18319;48.974;8.462;2023-04-01T16:52:12;1.33;;;1.23;;
31746;SDS011;18319;48.974;8.462;2023-04-01T16:54:42;1.50;;;1.15;;
31746;SDS011;18319;48.974;8.462;2023-04-01T16:57:21;3.42;;;1.23;;
31746;SDS011;18319;48.974;8.462;2023-04-01T16:59:54;1.73;;;1.25;;
31746;SDS011;18319;48.974;8.462;2023-04-01T17:02:26;1.10;;;0.95;;
31746;SDS011;18319;48.974;8.462;2023-04-01T17:05:00;13.38;;;8.30;;
31746;SDS011;18319;48.974;8.462;2023-04-01T17:07:33;17.00;;;12.40;;